الصفحة الرئيسية
METAR-TAF:

METAR-TAF

مطار :

مطار عين أمناس

إن أميناس, الجزائر

دائرة عرض: 28-03N, خط طول: 009-38E, ارتفاع: 562 متر

مراقبة الطقس الحالي

تاريخ ووقت الإصدار 57 دقيقة قبل الساعة 18:00UTC
ريح 5 عقدة من الشمال الغربي, الاتجاه يتراوح بين الغرب و الشمال/الشمال الغربي
درجة الحرارة 28°درجة مئوية
الرطوبة 11%
ضغط 1012 hPa
الرؤية 10 كم أو أكثر
الغيوم لا تقل 1500 م ولا وجود لمزنة ركامية السحاب الأسود

METAR: DAUZ 011800Z 31005KT 280V340 CAVOK 28/M05 Q1012

زمن: 19:57 (18:57 UTC)

توقعات

تاريخ ووقت الإصدار 1ساعة و 57 دقيقة قبل الساعة 17:00UTC
التوقعات صالحة من01 الساعة 18 UTC إلى 02 الساعة 18 UTC
ريح 8 عقدة من الشمال الغربي
الرؤية 10 كم أو أكثر
الغيوم لا تقل 1500 م ولا وجود لمزنة ركامية السحاب الأسود
أصبح
من 02 الساعة 04 UTC إلى 02 الساعة 08 UTC
ريح 12 عقدة من الجنوب/الجنوب الشرقي
أصبح
من 02 الساعة 12 UTC إلى 02 الساعة 15 UTC
ريح 12 عقدة من الجنوب الغربي

TAF: DAUZ 011700Z 0118/0218 32008KT CAVOK BECMG 0204/0208 15012KT BECMG 0212/0215 22012KT

أرصاد الطقس والتوقعات من أكثر من 4000 مطار (تقارير الطقس للمطار METAR والتنبؤ بالطقس بالمطارTAF).

المحطات المتاحة هي النقط الصفراء والحمراء على الخريطة.

حرك المؤشر فوق النقطة لمعرفة اسم المحطة.

ثم انقر لمعرفة أرصاد وتوقعات الطقس.

لتغيير الخارطة: اضغط على الأزرار الخضراء مع رمز الصليب الأسود للتكبير. على الزر الأخضر مع شرطة للتصغير، أو على الأسهم الخضراء للخرائط المجاورة.


METAR-TAF: